Time;durP1;ratioP1;P1;durP2;ratioP2;P2;SDS_P1;SDS_P2;PMS_P1;PMS_P2;Temp;Humidity;BMP_temperature;BMP_pressure;BME280_temperature;BME280_humidity;BME280_pressure;Samples;Min_cycle;Max_cycle;Signal;HPM_P1;HPM_P2
2022/01/28 00:00:13;;;;;;;137.35;67.75;;;;;;;-1.62;60.69;95446.38;5081503;28;19920;-83
2022/01/28 00:02:51;;;;;;;173.95;76.75;;;;;;;-1.59;60.53;95446.09;5064635;28;20495;-82
2022/01/28 00:05:20;;;;;;;180.98;78.25;;;;;;;-1.54;60.63;95438.81;5083762;28;20066;-83
2022/01/28 00:07:46;;;;;;;174.25;78.63;;;;;;;-1.57;60.74;95444.19;5074106;28;20025;-83
2022/01/28 00:10:11;;;;;;;177.35;82.18;;;;;;;-1.61;60.85;95442.88;5067158;28;20044;-82
2022/01/28 00:12:49;;;;;;;192.50;88.63;;;;;;;-1.55;61.19;95442.31;5073921;28;20055;-83
2022/01/28 00:15:25;;;;;;;201.15;89.85;;;;;;;-1.47;60.34;95439.84;5067056;28;20466;-81
2022/01/28 00:39:10;;;;;;;337.67;159.90;;;;;;;-1.73;59.43;95424.41;5088319;28;20036;-83
2022/01/28 00:41:36;;;;;;;324.92;155.48;;;;;;;-1.74;59.83;95411.81;5079608;28;20039;-82
2022/01/28 00:44:01;;;;;;;265.55;130.13;;;;;;;-1.73;59.78;95418.50;5071889;28;20023;-81
2022/01/28 00:46:27;;;;;;;240.88;125.30;;;;;;;-1.68;59.06;95412.03;5089939;28;20060;-83
2022/01/28 00:48:52;;;;;;;256.00;127.05;;;;;;;-1.76;59.50;95413.69;5097611;28;20938;-82
2022/01/28 00:51:18;;;;;;;266.73;119.13;;;;;;;-1.72;59.66;95415.00;5079890;28;20041;-82
2022/01/28 00:53:43;;;;;;;235.68;122.45;;;;;;;-1.75;58.96;95418.66;5098334;28;20028;-82
2022/01/28 00:56:08;;;;;;;223.38;119.18;;;;;;;-1.78;58.60;95413.03;5101660;28;20054;-84
2022/01/28 00:58:34;;;;;;;215.65;114.82;;;;;;;-1.81;59.08;95401.34;5092260;28;20032;-83
2022/01/28 01:00:59;;;;;;;233.02;121.18;;;;;;;-1.84;58.70;95402.44;5088044;28;20031;-84
2022/01/28 01:03:25;;;;;;;230.70;109.22;;;;;;;-1.85;59.53;95400.84;5079742;28;20032;-83
2022/01/28 01:05:50;;;;;;;237.85;109.68;;;;;;;-1.82;59.88;95403.09;5071276;28;20143;-82
2022/01/28 01:08:16;;;;;;;221.50;113.63;;;;;;;-1.89;59.44;95389.34;5080837;28;20020;-83
2022/01/28 01:10:42;;;;;;;241.95;112.88;;;;;;;-1.96;59.20;95384.91;5072828;28;20782;-84
2022/01/28 01:13:08;;;;;;;247.45;117.20;;;;;;;-1.94;59.53;95391.50;5089177;28;20051;-84
2022/01/28 01:15:38;;;;;;;243.20;111.85;;;;;;;-1.89;59.14;95396.19;5079166;28;20057;-83
2022/01/28 01:21:04;;;;;;;215.27;102.00;;;;;;;-1.97;60.12;95371.38;5070867;28;20049;-82
2022/01/28 01:23:35;;;;;;;221.15;99.70;;;;;;;-1.89;60.13;95378.34;5089677;28;20023;-83
2022/01/28 01:28:33;;;;;;;223.63;102.95;;;;;;;-1.94;60.52;95360.94;5086636;28;20419;-82
2022/01/28 01:31:01;;;;;;;244.77;109.45;;;;;;;-1.91;60.24;95365.75;5079057;28;20042;-82
2022/01/28 01:33:28;;;;;;;233.07;107.15;;;;;;;-1.97;59.44;95353.53;5089410;28;20037;-82
2022/01/28 01:35:54;;;;;;;232.88;110.35;;;;;;;-2.02;59.38;95358.25;5092167;28;20020;-82
2022/01/28 01:38:24;;;;;;;236.95;113.57;;;;;;;-2.01;58.68;95354.78;5083816;28;20110;-83
2022/01/28 01:40:56;;;;;;;217.60;105.72;;;;;;;-1.96;58.98;95357.69;5103538;28;20032;-83
2022/01/28 01:54:02;;;;;;;240.05;101.97;;;;;;;-1.96;59.45;95339.06;5088520;28;20046;-84
2022/01/28 01:56:28;;;;;;;203.95;88.60;;;;;;;-1.98;61.14;95334.09;5086919;28;20036;-85
2022/01/28 01:58:54;;;;;;;226.43;106.68;;;;;;;-2.05;59.56;95333.06;5096108;22;20130;-84
2022/01/28 02:01:19;;;;;;;159.52;76.20;;;;;;;-1.98;60.44;95336.66;5085976;28;20036;-84
2022/01/28 02:03:44;;;;;;;92.00;41.78;;;;;;;-1.91;61.55;95339.44;5078113;28;20046;-83
2022/01/28 02:06:10;;;;;;;49.33;22.50;;;;;;;-1.81;61.96;95335.88;5088867;28;20040;-83
2022/01/28 02:08:36;;;;;;;102.22;51.55;;;;;;;-1.76;61.34;95337.22;5054022;28;20044;-82
2022/01/28 02:11:01;;;;;;;155.25;68.93;;;;;;;-1.78;60.47;95332.28;5089118;28;20105;-84
2022/01/28 02:13:30;;;;;;;123.25;57.47;;;;;;;-1.78;61.02;95319.53;5068325;28;20119;-84
2022/01/28 02:15:57;;;;;;;143.70;64.57;;;;;;;-1.81;59.75;95315.50;5084464;28;20047;-84
2022/01/28 02:18:22;;;;;;;164.07;77.55;;;;;;;-1.82;59.34;95313.09;5066470;28;20071;-85
2022/01/28 02:20:50;;;;;;;187.35;80.22;;;;;;;-1.76;59.73;95321.94;5049173;28;20032;-84
2022/01/28 02:23:16;;;;;;;147.07;71.78;;;;;;;-1.78;59.19;95318.72;5086293;28;20028;-84
2022/01/28 02:25:42;;;;;;;159.23;77.22;;;;;;;-1.78;58.94;95308.53;5053380;28;20568;-84
2022/01/28 02:28:10;;;;;;;161.40;77.15;;;;;;;-1.85;59.06;95310.81;5075409;28;20124;-85
2022/01/28 02:30:38;;;;;;;166.10;80.25;;;;;;;-1.93;59.43;95306.47;5095220;28;20047;-85
2022/01/28 02:33:16;;;;;;;162.50;77.03;;;;;;;-1.86;59.17;95302.38;5090500;28;20074;-84
2022/01/28 02:35:43;;;;;;;189.73;93.28;;;;;;;-1.90;59.03;95306.16;5067417;22;20099;-83
2022/01/28 02:38:09;;;;;;;267.38;124.32;;;;;;;-2.08;58.54;95302.78;5100115;28;20078;-85
2022/01/28 02:40:36;;;;;;;302.15;138.60;;;;;;;-2.13;57.99;95310.03;5066585;28;20058;-85
2022/01/28 02:43:15;;;;;;;300.23;132.75;;;;;;;-2.19;57.96;95310.59;5075683;28;20111;-85
2022/01/28 02:45:43;;;;;;;256.67;119.88;;;;;;;-2.22;58.19;95305.81;5093331;28;20031;-84
2022/01/28 02:48:13;;;;;;;226.35;110.03;;;;;;;-2.26;59.00;95309.59;5100483;22;20099;-86
2022/01/28 02:50:46;;;;;;;165.23;81.55;;;;;;;-2.28;59.46;95308.91;5097244;28;20106;-85
2022/01/28 02:53:21;;;;;;;125.60;54.13;;;;;;;-2.30;59.67;95303.13;5068709;28;20404;-85
2022/01/28 02:55:47;;;;;;;103.13;49.40;;;;;;;-2.23;60.82;95294.00;5079201;28;20047;-85
2022/01/28 02:58:21;;;;;;;82.78;40.05;;;;;;;-2.23;61.23;95304.19;5083147;28;20426;-84
2022/01/28 03:00:47;;;;;;;94.97;46.95;;;;;;;-2.18;60.85;95299.47;5066858;28;20059;-85
2022/01/28 03:03:18;;;;;;;99.78;49.78;;;;;;;-2.18;60.81;95291.84;5079724;28;20036;-84
2022/01/28 03:05:44;;;;;;;109.97;50.47;;;;;;;-2.06;60.62;95295.81;5098205;28;20024;-84
2022/01/28 03:08:10;;;;;;;114.60;57.15;;;;;;;-2.03;60.05;95282.78;5098327;22;20129;-84
2022/01/28 03:13:29;;;;;;;151.07;65.35;;;;;;;-2.08;61.63;95271.41;5073671;28;20173;-84
2022/01/28 03:16:05;;;;;;;123.90;60.58;;;;;;;-2.08;61.23;95267.13;5062040;28;20036;-83
2022/01/28 03:18:41;;;;;;;125.55;60.88;;;;;;;-1.99;60.47;95266.25;5096724;28;20085;-83
2022/01/28 03:21:19;;;;;;;139.60;66.95;;;;;;;-1.98;60.61;95267.03;5084740;28;20028;-83
2022/01/28 03:23:44;;;;;;;123.53;59.40;;;;;;;-1.96;60.04;95265.94;5098077;28;20030;-84
2022/01/28 03:26:10;;;;;;;139.50;67.80;;;;;;;-2.03;60.26;95264.94;5071225;28;20413;-83
2022/01/28 03:28:35;;;;;;;165.23;81.05;;;;;;;-1.99;59.32;95261.16;5075810;28;20115;-84
2022/01/28 03:31:01;;;;;;;171.73;80.63;;;;;;;-1.96;59.75;95263.41;5075940;28;20105;-85
2022/01/28 03:33:26;;;;;;;138.35;64.85;;;;;;;-1.99;59.43;95245.06;5087466;28;20031;-83
2022/01/28 03:35:52;;;;;;;112.38;51.95;;;;;;;-2.03;60.92;95244.53;5084679;28;20040;-83
2022/01/28 03:38:17;;;;;;;129.68;60.65;;;;;;;-2.00;60.67;95234.06;5102814;28;20559;-83
2022/01/28 03:40:43;;;;;;;186.65;80.63;;;;;;;-2.04;59.40;95248.03;5102625;28;20040;-82
2022/01/28 03:43:08;;;;;;;212.40;100.07;;;;;;;-2.14;59.03;95248.09;5076310;28;20028;-82
2022/01/28 03:45:34;;;;;;;245.05;115.53;;;;;;;-2.09;58.53;95244.34;5065921;28;20028;-83
2022/01/28 03:47:59;;;;;;;230.48;113.22;;;;;;;-2.07;59.17;95233.03;5075824;28;20479;-82
2022/01/28 03:50:25;;;;;;;241.93;118.15;;;;;;;-2.08;58.71;95235.75;5093507;28;20176;-83
2022/01/28 03:52:50;;;;;;;222.77;101.78;;;;;;;-2.21;59.34;95230.97;5063368;28;20028;-83
2022/01/28 03:55:16;;;;;;;222.02;105.03;;;;;;;-2.27;58.68;95229.03;5097371;28;20036;-82
2022/01/28 03:57:41;;;;;;;202.93;100.30;;;;;;;-2.27;59.55;95232.38;5095911;28;20036;-82
2022/01/28 04:00:07;;;;;;;235.05;113.55;;;;;;;-2.35;58.71;95234.00;5068711;28;20093;-83
2022/01/28 04:02:37;;;;;;;239.10;111.63;;;;;;;-2.30;58.70;95221.63;5068796;28;20039;-83
2022/01/28 04:13:00;;;;;;;266.10;131.63;;;;;;;-2.48;59.32;95212.22;5101063;28;20128;-81
2022/01/28 04:15:51;;;;;;;276.52;132.48;;;;;;;-2.48;59.32;95219.06;5065912;28;20626;-84
2022/01/28 04:18:17;;;;;;;252.73;124.85;;;;;;;-2.43;59.58;95225.34;5080691;28;20028;-81
2022/01/28 04:20:42;;;;;;;269.92;127.68;;;;;;;-2.46;59.38;95228.16;5096124;28;20032;-79
2022/01/28 04:23:07;;;;;;;280.52;133.50;;;;;;;-2.55;58.35;95234.09;5107642;28;20043;-79
2022/01/28 04:25:33;;;;;;;307.25;144.57;;;;;;;-2.48;58.13;95245.31;5091888;28;20423;-80
2022/01/28 04:27:58;;;;;;;298.88;142.25;;;;;;;-2.51;58.39;95232.06;5092706;28;20028;-79
2022/01/28 04:30:24;;;;;;;267.85;127.40;;;;;;;-2.50;58.91;95239.56;5096020;28;20036;-79
2022/01/28 04:32:51;;;;;;;247.15;118.00;;;;;;;-2.51;58.69;95234.63;5096091;28;20038;-80
2022/01/28 04:35:16;;;;;;;216.25;105.95;;;;;;;-2.49;58.89;95233.53;5094757;28;20079;-81
2022/01/28 04:37:59;;;;;;;202.30;102.25;;;;;;;-2.55;59.10;95239.19;5100145;28;20094;-81
2022/01/28 04:40:29;;;;;;;203.40;106.45;;;;;;;-2.53;59.25;95232.22;5094426;28;20040;-80
2022/01/28 04:51:01;;;;;;;187.82;95.00;;;;;;;-2.35;60.62;95244.19;5078799;28;20043;-81
2022/01/28 05:13:58;;;;;;;228.40;113.65;;;;;;;-2.66;59.43;95239.38;5070036;28;20055;-81
2022/01/28 05:27:03;;;;;;;407.70;205.00;;;;;;;-2.56;59.01;95237.59;5081941;28;20035;-79
2022/01/28 05:29:29;;;;;;;382.85;186.10;;;;;;;-2.55;58.86;95246.84;5128459;22;20070;-79
2022/01/28 05:31:58;;;;;;;383.95;190.77;;;;;;;-2.59;59.05;95260.00;5146650;27;20027;-80
2022/01/28 05:34:26;;;;;;;347.38;173.98;;;;;;;-2.53;58.03;95252.59;5151678;22;20051;-80
2022/01/28 05:36:51;;;;;;;363.45;176.90;;;;;;;-2.60;58.32;95246.47;5104089;28;20391;-78
2022/01/28 05:39:17;;;;;;;322.83;162.25;;;;;;;-2.57;58.36;95251.28;5094650;28;20036;-78
2022/01/28 05:41:43;;;;;;;315.80;158.00;;;;;;;-2.61;59.40;95260.09;5085627;28;20465;-79
2022/01/28 05:44:09;;;;;;;550.40;287.58;;;;;;;-2.64;59.18;95260.41;5087941;28;20036;-79
2022/01/28 05:46:34;;;;;;;622.30;314.23;;;;;;;-2.59;59.00;95263.34;5087962;28;20483;-79
2022/01/28 05:48:59;;;;;;;610.85;316.00;;;;;;;-2.60;59.25;95256.66;5052526;28;20036;-79
2022/01/28 05:51:25;;;;;;;533.15;285.25;;;;;;;-2.63;58.42;95248.47;5087335;28;20036;-79
2022/01/28 05:53:50;;;;;;;506.05;279.60;;;;;;;-2.54;58.95;95245.09;5086304;28;20036;-79
2022/01/28 05:56:16;;;;;;;484.85;250.93;;;;;;;-2.55;59.44;95251.94;5085450;28;20420;-79
2022/01/28 05:58:41;;;;;;;474.63;259.77;;;;;;;-2.51;59.24;95260.09;5065993;28;20029;-79
2022/01/28 06:01:07;;;;;;;458.92;263.10;;;;;;;-2.46;59.25;95258.72;5084162;28;20423;-79
2022/01/28 06:03:32;;;;;;;462.67;252.82;;;;;;;-2.50;58.93;95252.31;5079205;28;20024;-79
2022/01/28 06:05:58;;;;;;;436.23;233.75;;;;;;;-2.39;58.96;95258.16;5084006;28;20407;-79
2022/01/28 06:08:23;;;;;;;430.60;231.98;;;;;;;-2.33;58.65;95260.13;5066065;28;20028;-79
2022/01/28 06:10:49;;;;;;;405.27;209.65;;;;;;;-2.28;59.71;95276.63;5083609;28;20469;-79
2022/01/28 06:13:14;;;;;;;393.27;196.30;;;;;;;-2.18;58.21;95276.53;5083265;28;20033;-79
2022/01/28 06:15:41;;;;;;;384.98;199.25;;;;;;;-2.22;57.81;95270.13;5067018;28;20020;-79
2022/01/28 06:18:06;;;;;;;401.45;219.00;;;;;;;-2.19;57.12;95272.41;5065966;28;20070;-80
2022/01/28 06:20:32;;;;;;;442.52;251.15;;;;;;;-2.17;57.67;95281.50;5048732;28;20111;-79
2022/01/28 06:22:57;;;;;;;502.63;307.23;;;;;;;-1.95;56.99;95287.16;5082703;28;20047;-79
2022/01/28 06:25:23;;;;;;;503.17;288.25;;;;;;;-1.82;57.16;95283.31;5083523;28;20120;-79
2022/01/28 06:27:48;;;;;;;457.95;242.65;;;;;;;-1.62;56.74;95278.91;5048633;28;20388;-79
2022/01/28 06:30:16;;;;;;;446.90;239.80;;;;;;;-1.19;55.84;95294.38;5068501;28;20024;-79
2022/01/28 06:32:42;;;;;;;428.60;214.85;;;;;;;-0.97;55.38;95293.94;5083398;28;20025;-79
2022/01/28 06:35:08;;;;;;;435.23;218.75;;;;;;;-0.83;55.07;95283.16;5059117;28;20029;-79
2022/01/28 06:37:37;;;;;;;432.33;220.90;;;;;;;-0.69;55.26;95274.94;5081479;28;20031;-79
2022/01/28 06:40:04;;;;;;;441.30;231.43;;;;;;;-0.40;55.26;95289.13;5057475;28;20453;-79
2022/01/28 06:42:30;;;;;;;454.45;239.55;;;;;;;-0.23;55.21;95278.03;5079497;28;20491;-79
2022/01/28 06:44:55;;;;;;;536.20;296.42;;;;;;;0.05;54.90;95285.50;5081749;28;20042;-79
2022/01/28 06:47:21;;;;;;;505.45;277.02;;;;;;;0.25;54.80;95274.03;5082523;28;20445;-79
2022/01/28 06:49:46;;;;;;;290.02;131.38;;;;;;;0.45;53.71;95271.97;5082702;28;20048;-79
2022/01/28 06:52:11;;;;;;;227.23;109.40;;;;;;;0.66;54.35;95280.00;5079238;28;20111;-77
2022/01/28 06:54:37;;;;;;;278.63;134.45;;;;;;;0.84;54.42;95287.53;5044266;28;20533;-77
2022/01/28 06:57:03;;;;;;;154.93;75.53;;;;;;;1.09;53.08;95278.06;5079409;28;20020;-77
2022/01/28 06:59:28;;;;;;;121.60;57.20;;;;;;;1.23;52.24;95289.41;5077373;28;20040;-77
2022/01/28 07:01:53;;;;;;;127.38;54.25;;;;;;;1.38;52.09;95293.72;5077331;28;20020;-77
2022/01/28 07:04:19;;;;;;;252.20;111.70;;;;;;;1.59;52.25;95297.50;5061997;28;20427;-77
2022/01/28 07:06:46;;;;;;;312.58;136.65;;;;;;;1.90;52.19;95295.00;5063049;28;20030;-78
2022/01/28 07:09:11;;;;;;;281.25;127.80;;;;;;;2.21;50.81;95298.41;5061442;28;20111;-78
2022/01/28 07:11:36;;;;;;;266.20;131.73;;;;;;;2.53;50.96;95294.06;5078390;28;20031;-78
2022/01/28 07:14:03;;;;;;;317.10;147.98;;;;;;;2.85;50.00;95291.25;5079698;28;20059;-77
2022/01/28 07:16:29;;;;;;;304.52;134.73;;;;;;;3.17;48.43;95292.78;5061809;28;20345;-75
2022/01/28 07:18:56;;;;;;;314.92;148.95;;;;;;;3.31;48.58;95296.34;5077035;28;20032;-76
2022/01/28 07:21:21;;;;;;;252.43;122.07;;;;;;;3.54;48.17;95301.41;5061135;28;20066;-76
2022/01/28 07:23:47;;;;;;;231.20;109.50;;;;;;;3.69;48.19;95297.09;5078423;28;20104;-76
2022/01/28 07:26:12;;;;;;;246.52;113.65;;;;;;;3.80;47.74;95301.00;5043974;28;20036;-76
2022/01/28 07:28:39;;;;;;;233.50;111.85;;;;;;;3.68;47.15;95299.84;5078898;28;20024;-76
2022/01/28 07:31:05;;;;;;;203.77;101.53;;;;;;;3.63;47.30;95300.38;5077743;28;20106;-76
2022/01/28 07:33:30;;;;;;;194.93;95.85;;;;;;;3.65;47.43;95297.63;5079074;28;20043;-76
2022/01/28 07:35:56;;;;;;;178.07;84.35;;;;;;;3.72;47.42;95313.94;5078623;28;20032;-76
2022/01/28 07:38:24;;;;;;;193.23;99.07;;;;;;;3.97;46.53;95312.72;5079350;28;20031;-76
2022/01/28 07:40:49;;;;;;;195.85;97.45;;;;;;;4.08;46.91;95304.53;5078155;28;20044;-75
2022/01/28 07:43:15;;;;;;;194.00;93.28;;;;;;;4.36;46.46;95314.16;5075950;28;20040;-76
2022/01/28 07:45:41;;;;;;;161.82;80.60;;;;;;;4.58;45.12;95315.81;5076879;28;20028;-76
2022/01/28 07:48:06;;;;;;;156.18;77.10;;;;;;;4.58;44.61;95320.97;5076691;28;20089;-76
2022/01/28 07:50:33;;;;;;;129.48;67.25;;;;;;;4.56;44.26;95322.13;5078740;28;20047;-76
2022/01/28 07:52:59;;;;;;;129.43;58.25;;;;;;;4.34;44.46;95319.50;5075964;28;20032;-76
2022/01/28 07:55:25;;;;;;;138.60;63.65;;;;;;;4.50;44.90;95334.72;5060225;28;20104;-76
2022/01/28 07:57:50;;;;;;;130.98;57.63;;;;;;;4.67;43.87;95339.66;5078204;28;20035;-76
2022/01/28 08:00:16;;;;;;;122.20;54.67;;;;;;;4.88;42.41;95326.00;5077881;28;20411;-76
2022/01/28 08:03:15;;;;;;;128.65;57.42;;;;;;;5.19;41.86;95328.25;5079710;28;20028;-76
2022/01/28 08:05:40;;;;;;;118.55;58.55;;;;;;;5.38;42.55;95325.88;5029710;28;20076;-76
2022/01/28 08:08:08;;;;;;;123.57;56.17;;;;;;;5.64;41.53;95327.81;5055775;28;20094;-76
2022/01/28 08:10:34;;;;;;;121.22;52.03;;;;;;;5.83;42.15;95326.34;5049350;28;20043;-75
2022/01/28 08:13:03;;;;;;;110.20;48.58;;;;;;;6.07;40.85;95314.03;5056480;28;20032;-75
2022/01/28 08:15:29;;;;;;;115.63;46.95;;;;;;;6.16;40.50;95311.06;5040090;28;20158;-75
2022/01/28 08:17:54;;;;;;;92.20;45.17;;;;;;;6.14;39.89;95304.50;5023464;28;20036;-75
2022/01/28 08:20:20;;;;;;;82.95;35.47;;;;;;;6.17;39.61;95291.22;5039300;28;20035;-75
2022/01/28 08:22:46;;;;;;;91.38;40.95;;;;;;;6.21;40.03;95288.06;5039227;28;20417;-75
2022/01/28 08:25:11;;;;;;;100.90;41.28;;;;;;;6.25;39.66;95280.72;5057481;28;20040;-75
2022/01/28 08:27:37;;;;;;;80.97;37.05;;;;;;;6.32;40.02;95289.28;5056359;28;20105;-75
2022/01/28 08:30:03;;;;;;;83.00;36.10;;;;;;;6.49;40.11;95285.38;5057856;28;20407;-75
2022/01/28 08:32:28;;;;;;;80.25;36.60;;;;;;;6.72;39.88;95281.66;5054891;28;20117;-75
2022/01/28 08:34:54;;;;;;;70.50;34.35;;;;;;;6.81;39.32;95289.03;5056419;28;20483;-75
2022/01/28 08:37:19;;;;;;;76.90;36.75;;;;;;;6.98;38.34;95294.63;5059111;28;20541;-75
2022/01/28 08:39:45;;;;;;;77.00;37.63;;;;;;;7.30;37.60;95287.88;5059133;28;20040;-75
2022/01/28 08:42:10;;;;;;;85.80;36.33;;;;;;;7.04;37.04;95283.50;5058573;28;20031;-76
2022/01/28 08:44:36;;;;;;;75.72;35.58;;;;;;;6.87;37.34;95284.88;5043209;28;20044;-75
2022/01/28 08:47:01;;;;;;;88.30;36.17;;;;;;;6.83;37.71;95281.06;5060923;28;20484;-75
2022/01/28 08:49:27;;;;;;;79.78;36.45;;;;;;;6.65;38.19;95291.19;5042395;28;20049;-75
2022/01/28 08:51:52;;;;;;;73.47;32.20;;;;;;;6.39;38.48;95295.28;5041666;28;20039;-75
2022/01/28 08:54:17;;;;;;;69.18;31.92;;;;;;;6.36;38.81;95294.88;5042686;28;20048;-75
2022/01/28 08:56:43;;;;;;;64.22;30.38;;;;;;;6.41;38.37;95303.63;5042549;28;20029;-75
2022/01/28 08:59:09;;;;;;;71.32;34.72;;;;;;;6.12;38.90;95309.06;5060610;28;20048;-75
2022/01/28 09:01:34;;;;;;;90.20;43.60;;;;;;;6.05;39.43;95316.81;5042090;28;20427;-75
2022/01/28 09:04:00;;;;;;;90.90;48.42;;;;;;;6.08;39.72;95316.41;5043303;28;20044;-75
2022/01/28 09:06:25;;;;;;;106.72;50.28;;;;;;;6.18;39.53;95313.47;5058609;28;20033;-75
2022/01/28 09:08:55;;;;;;;89.63;46.38;;;;;;;6.25;39.06;95309.13;5060224;28;20036;-75
2022/01/28 09:13:48;;;;;;;93.47;49.20;;;;;;;6.52;39.38;95310.84;5058800;28;20039;-75
2022/01/28 09:16:14;;;;;;;89.57;49.63;;;;;;;6.73;39.06;95296.19;5058895;28;20064;-75
2022/01/28 09:18:39;;;;;;;110.53;54.50;;;;;;;6.94;38.44;95296.00;5059026;28;20032;-75
2022/01/28 09:21:05;;;;;;;116.90;56.45;;;;;;;7.03;37.78;95300.00;5059738;28;20057;-75
2022/01/28 09:23:31;;;;;;;107.15;58.50;;;;;;;6.95;37.91;95297.59;5043572;28;20397;-76
2022/01/28 09:25:56;;;;;;;107.68;54.00;;;;;;;6.84;37.77;95309.34;5034884;28;20041;-76
2022/01/28 09:28:22;;;;;;;89.30;43.15;;;;;;;6.57;37.86;95308.47;5059382;28;20024;-75
2022/01/28 09:30:47;;;;;;;90.32;46.05;;;;;;;6.48;38.78;95312.19;5060156;28;20041;-75
2022/01/28 09:33:13;;;;;;;88.65;42.42;;;;;;;6.56;38.82;95316.41;5059580;28;20458;-75
2022/01/28 09:35:41;;;;;;;75.05;37.55;;;;;;;6.69;38.99;95315.66;5033062;28;20036;-75
2022/01/28 09:38:06;;;;;;;73.20;35.75;;;;;;;6.72;38.34;95307.50;5042422;28;20069;-75
2022/01/28 09:40:32;;;;;;;78.00;37.10;;;;;;;6.72;38.52;95310.09;5058304;28;20020;-75
2022/01/28 09:42:59;;;;;;;69.40;33.47;;;;;;;6.75;38.19;95307.13;5057558;28;20198;-75
2022/01/28 09:45:25;;;;;;;79.28;35.88;;;;;;;6.63;38.46;95297.34;5058207;28;20060;-76
2022/01/28 09:47:53;;;;;;;83.95;37.30;;;;;;;6.58;38.84;95299.72;5058346;28;20511;-75
2022/01/28 09:50:21;;;;;;;78.82;35.15;;;;;;;6.71;39.01;95301.53;5059633;28;20123;-76
2022/01/28 09:52:47;;;;;;;83.85;36.17;;;;;;;6.67;39.60;95302.09;5058245;28;20061;-76
2022/01/28 09:55:12;;;;;;;88.57;38.53;;;;;;;6.74;40.14;95305.53;5058333;28;20091;-75
2022/01/28 09:57:38;;;;;;;89.93;44.58;;;;;;;6.78;39.81;95296.38;5042678;28;20033;-75
2022/01/28 10:00:05;;;;;;;95.03;49.20;;;;;;;6.85;39.40;95302.38;5040254;28;20074;-76
2022/01/28 10:02:59;;;;;;;83.38;46.38;;;;;;;6.83;39.09;95312.09;5059365;28;20029;-76
2022/01/28 10:05:27;;;;;;;87.28;44.03;;;;;;;6.63;39.45;95307.66;5058610;28;20040;-75
2022/01/28 10:08:01;;;;;;;89.38;45.30;;;;;;;6.30;39.88;95312.72;5058932;28;20454;-75
2022/01/28 10:10:40;;;;;;;86.22;47.08;;;;;;;5.97;40.35;95306.63;5059645;28;20514;-75
2022/01/28 10:13:42;;;;;;;98.55;45.42;;;;;;;5.84;41.34;95312.47;5058277;28;20039;-75
2022/01/28 10:16:15;;;;;;;79.78;40.53;;;;;;;5.79;41.67;95308.88;5043655;28;20033;-75
2022/01/28 10:18:43;;;;;;;102.35;49.17;;;;;;;5.85;41.83;95323.59;5059278;28;20086;-76
2022/01/28 10:21:16;;;;;;;93.65;47.40;;;;;;;5.98;41.88;95314.16;5050359;28;20097;-76
2022/01/28 10:23:42;;;;;;;107.15;47.55;;;;;;;5.97;42.02;95312.56;5059307;28;20024;-75
2022/01/28 10:26:07;;;;;;;106.18;47.38;;;;;;;6.01;41.73;95323.31;5059898;28;20028;-76
2022/01/28 10:28:33;;;;;;;99.97;46.40;;;;;;;6.12;41.77;95333.09;5059036;28;20032;-75
2022/01/28 10:30:59;;;;;;;101.00;44.13;;;;;;;6.21;41.82;95326.00;5058534;28;20028;-76
2022/01/28 10:33:24;;;;;;;95.45;47.08;;;;;;;6.19;41.71;95325.41;5041139;28;20055;-75
2022/01/28 10:35:51;;;;;;;89.47;46.00;;;;;;;6.17;41.78;95322.19;5057553;28;20032;-76
2022/01/28 10:38:37;;;;;;;102.80;49.65;;;;;;;6.15;42.23;95319.00;5041100;28;20495;-75
2022/01/28 10:41:15;;;;;;;100.43;47.55;;;;;;;6.20;41.90;95319.25;5024934;28;20131;-75
2022/01/28 10:43:44;;;;;;;100.53;51.50;;;;;;;6.29;41.54;95318.88;5057601;28;20032;-75
2022/01/28 10:46:09;;;;;;;97.75;50.50;;;;;;;6.31;41.61;95319.47;5040846;28;20033;-76
2022/01/28 10:48:55;;;;;;;98.43;49.60;;;;;;;6.42;42.21;95314.78;5040073;28;20028;-75
2022/01/28 10:51:21;;;;;;;107.75;48.72;;;;;;;6.44;42.39;95323.13;5057318;28;20036;-75
2022/01/28 10:54:06;;;;;;;111.85;48.80;;;;;;;6.47;41.54;95331.28;5039620;28;20025;-75
2022/01/28 10:57:05;;;;;;;95.00;47.33;;;;;;;6.49;41.12;95320.75;5057314;28;20025;-75
2022/01/28 10:59:41;;;;;;;84.57;46.53;;;;;;;6.38;41.31;95308.41;5018168;28;20036;-75
2022/01/28 11:02:06;;;;;;;92.07;46.30;;;;;;;6.45;41.49;95314.38;5040705;28;20495;-75
2022/01/28 11:04:33;;;;;;;98.75;47.33;;;;;;;6.53;41.36;95309.84;5058073;28;20044;-75
2022/01/28 11:07:01;;;;;;;101.88;50.88;;;;;;;6.55;41.93;95304.47;5058758;28;20052;-76
2022/01/28 11:09:26;;;;;;;106.75;49.40;;;;;;;6.56;41.71;95306.88;5057843;28;20043;-76
2022/01/28 11:11:52;;;;;;;160.80;62.50;;;;;;;6.69;42.12;95306.13;5056930;28;20033;-75
2022/01/28 11:14:18;;;;;;;183.10;76.43;;;;;;;6.65;42.52;95310.06;5056268;28;20122;-75
2022/01/28 11:16:43;;;;;;;184.20;72.90;;;;;;;6.58;42.25;95297.13;5058301;28;20414;-76
2022/01/28 11:19:10;;;;;;;170.05;74.32;;;;;;;6.70;42.31;95301.75;5057080;28;20040;-76
2022/01/28 11:21:38;;;;;;;167.20;78.78;;;;;;;6.74;41.65;95293.41;5023283;28;20082;-76
2022/01/28 11:24:32;;;;;;;112.57;57.17;;;;;;;6.82;42.51;95282.84;5057927;28;20031;-76
2022/01/28 11:27:04;;;;;;;156.50;74.03;;;;;;;6.99;42.05;95295.41;5058382;28;20329;-76
2022/01/28 11:29:30;;;;;;;126.15;55.97;;;;;;;7.13;41.74;95300.41;5040471;28;20039;-76
2022/01/28 11:31:57;;;;;;;100.05;52.70;;;;;;;7.20;42.00;95298.63;5056313;28;20032;-76
2022/01/28 11:34:26;;;;;;;72.82;34.75;;;;;;;7.27;43.12;95287.47;5039676;28;20029;-75
2022/01/28 11:36:56;;;;;;;43.53;20.77;;;;;;;7.14;44.44;95289.06;5056812;28;20508;-76
2022/01/28 11:39:37;;;;;;;33.25;16.60;;;;;;;7.16;45.35;95283.72;5040309;28;20125;-76
2022/01/28 11:42:10;;;;;;;13.48;9.50;;;;;;;7.04;46.17;95278.31;5056636;28;20025;-77
2022/01/28 11:44:50;;;;;;;25.70;11.45;;;;;;;6.91;46.76;95273.94;5056480;28;20482;-76
2022/01/28 11:47:29;;;;;;;23.20;13.15;;;;;;;6.85;47.20;95279.09;5058358;28;20495;-76
2022/01/28 11:50:01;;;;;;;55.78;24.42;;;;;;;6.88;47.20;95278.72;5056387;28;20032;-76
2022/01/28 11:52:29;;;;;;;50.75;23.13;;;;;;;6.96;46.98;95281.09;5056019;28;20068;-75
2022/01/28 11:54:55;;;;;;;55.40;22.05;;;;;;;7.04;46.92;95283.50;5023916;28;20033;-76
2022/01/28 11:57:23;;;;;;;55.95;25.25;;;;;;;7.11;47.34;95273.16;5056251;28;20036;-76
2022/01/28 11:59:48;;;;;;;34.83;16.42;;;;;;;7.11;47.07;95273.94;5039442;28;20116;-76
2022/01/28 12:02:14;;;;;;;23.27;11.15;;;;;;;7.12;47.26;95274.75;5039808;28;20033;-75
2022/01/28 12:04:41;;;;;;;11.27;7.70;;;;;;;7.10;47.46;95267.19;5055965;28;20029;-76
2022/01/28 12:07:18;;;;;;;20.13;9.88;;;;;;;7.13;47.09;95266.78;5047968;28;20029;-75
2022/01/28 12:09:54;;;;;;;20.55;11.77;;;;;;;7.26;47.53;95265.19;5041081;28;20043;-75
2022/01/28 12:12:38;;;;;;;17.38;9.75;;;;;;;7.25;47.33;95253.25;5057976;28;20041;-75
2022/01/28 12:15:15;;;;;;;15.10;6.97;;;;;;;7.21;47.35;95248.50;5061222;28;20407;-75
2022/01/28 12:17:42;;;;;;;11.40;6.93;;;;;;;7.16;47.37;95250.88;5059666;28;20027;-75
2022/01/28 12:20:24;;;;;;;14.15;6.97;;;;;;;7.17;48.08;95255.06;5051852;28;20030;-75
2022/01/28 12:23:08;;;;;;;14.20;9.52;;;;;;;7.25;47.83;95248.88;5060763;28;20025;-74
2022/01/28 12:25:36;;;;;;;15.80;10.02;;;;;;;7.26;48.03;95244.50;5060742;28;20029;-75
2022/01/28 12:28:32;;;;;;;21.70;10.68;;;;;;;7.31;48.05;95252.44;5062639;28;20036;-76
2022/01/28 12:31:04;;;;;;;23.98;13.15;;;;;;;7.33;47.54;95240.94;5061031;28;20120;-75
2022/01/28 12:33:31;;;;;;;23.75;10.20;;;;;;;7.41;47.55;95242.50;5046283;28;20028;-78
2022/01/28 12:35:58;;;;;;;12.98;7.22;;;;;;;7.46;47.31;95251.25;5053615;28;20032;-79
2022/01/28 12:38:29;;;;;;;19.25;10.52;;;;;;;7.48;47.52;95248.44;5044251;28;20028;-77
2022/01/28 12:40:56;;;;;;;17.83;10.43;;;;;;;7.49;46.91;95244.88;5061452;28;20040;-77
2022/01/28 12:43:23;;;;;;;17.00;9.05;;;;;;;7.49;46.69;95240.50;5030320;28;20032;-79
2022/01/28 12:46:02;;;;;;;14.48;7.95;;;;;;;7.52;45.78;95241.88;5051322;28;20094;-78
2022/01/28 12:48:28;;;;;;;18.60;11.30;;;;;;;7.52;46.46;95237.50;5040551;28;20032;-78